createdAt,value
2018-05-27T00:01:47.699Z,11.90
2018-05-27T00:04:15.226Z,12.03
2018-05-27T00:06:43.402Z,12.50
2018-05-27T00:09:10.930Z,13.13
2018-05-27T00:11:38.502Z,12.27
2018-05-27T00:14:06.053Z,13.57
2018-05-27T00:16:33.610Z,12.00
2018-05-27T00:19:01.162Z,11.67
2018-05-27T00:21:28.770Z,11.63
2018-05-27T00:23:56.299Z,11.70
2018-05-27T00:26:23.839Z,11.93
2018-05-27T00:28:51.554Z,12.45
2018-05-27T00:31:19.110Z,11.07
2018-05-27T00:33:46.747Z,11.03
2018-05-27T00:36:14.339Z,11.57
2018-05-27T00:38:41.904Z,11.00
2018-05-27T00:41:09.430Z,11.40
2018-05-27T00:43:36.982Z,11.60
2018-05-27T00:46:04.527Z,10.77
2018-05-27T00:48:32.086Z,11.07
2018-05-27T00:50:59.632Z,11.05
2018-05-27T00:53:39.027Z,11.37
2018-05-27T00:56:06.594Z,11.40
2018-05-27T00:58:34.246Z,11.57
2018-05-27T01:01:01.806Z,11.10
2018-05-27T01:03:29.473Z,11.40
2018-05-27T01:05:57.001Z,12.53
2018-05-27T01:08:24.582Z,11.63
2018-05-27T01:10:52.144Z,11.83
2018-05-27T01:13:19.697Z,12.20
2018-05-27T01:15:47.250Z,13.27
2018-05-27T01:18:14.810Z,11.23
2018-05-27T01:20:42.389Z,11.27
2018-05-27T01:23:09.944Z,12.27
2018-05-27T01:25:37.466Z,11.40
2018-05-27T01:28:05.062Z,10.67
2018-05-27T01:30:32.622Z,12.90
2018-05-27T01:33:00.292Z,11.63
2018-05-27T01:35:27.825Z,11.90
2018-05-27T01:37:55.431Z,11.75
2018-05-27T01:40:23.029Z,12.10
2018-05-27T01:42:50.585Z,13.23
2018-05-27T01:45:18.183Z,12.60
2018-05-27T01:47:45.859Z,13.67
2018-05-27T01:50:13.389Z,12.90
2018-05-27T01:52:40.962Z,14.90
2018-05-27T01:55:08.485Z,12.53
2018-05-27T01:57:36.054Z,11.93
2018-05-27T02:00:03.650Z,11.87
2018-05-27T02:02:31.303Z,12.80
2018-05-27T02:04:58.865Z,12.60
2018-05-27T02:07:26.406Z,12.20
2018-05-27T02:09:53.985Z,12.65
2018-05-27T02:12:21.541Z,13.80
2018-05-27T02:14:49.110Z,12.43
2018-05-27T02:17:16.637Z,12.77
2018-05-27T02:19:45.019Z,17.45
2018-05-27T02:22:12.569Z,15.77
2018-05-27T02:24:40.170Z,14.20
2018-05-27T02:27:07.717Z,12.50
2018-05-27T02:29:35.278Z,11.77
2018-05-27T02:32:02.828Z,11.85
2018-05-27T02:34:30.503Z,12.90
2018-05-27T02:36:58.055Z,12.37
2018-05-27T02:39:25.720Z,12.20
2018-05-27T02:41:53.258Z,11.97
2018-05-27T02:44:20.810Z,11.47
2018-05-27T02:46:48.332Z,12.50
2018-05-27T02:49:15.966Z,13.37
2018-05-27T02:51:43.619Z,14.13
2018-05-27T02:54:11.486Z,14.93
2018-05-27T02:56:39.044Z,15.20
2018-05-27T02:59:06.602Z,16.00
2018-05-27T03:01:34.177Z,15.97
2018-05-27T03:04:01.753Z,13.77
2018-05-27T03:06:29.286Z,13.33
2018-05-27T03:08:56.858Z,12.57
2018-05-27T03:11:24.391Z,11.63
2018-05-27T03:13:51.967Z,12.73
2018-05-27T03:16:19.517Z,12.57
2018-05-27T03:18:47.192Z,12.37
2018-05-27T03:21:16.242Z,11.93
2018-05-27T03:23:43.814Z,10.77
2018-05-27T03:26:11.399Z,10.47
2018-05-27T03:28:38.973Z,10.20
2018-05-27T03:31:06.508Z,11.73
2018-05-27T03:33:34.103Z,11.23
2018-05-27T03:36:01.625Z,12.00
2018-05-27T03:38:29.311Z,12.93
2018-05-27T03:40:56.877Z,13.37
2018-05-27T03:43:24.416Z,14.83
2018-05-27T03:45:52.077Z,13.38
2018-05-27T03:48:19.637Z,13.67
2018-05-27T03:50:47.195Z,13.57
2018-05-27T03:53:14.721Z,11.63
2018-05-27T03:55:42.328Z,15.73
2018-05-27T03:58:09.854Z,14.07
2018-05-27T04:00:37.430Z,11.53
2018-05-27T04:03:04.995Z,12.57
2018-05-27T04:05:44.557Z,12.02
2018-05-27T04:08:23.946Z,11.10
2018-05-27T04:10:51.514Z,11.82
2018-05-27T04:13:19.093Z,11.80
2018-05-27T04:15:46.754Z,12.33
2018-05-27T04:18:14.292Z,10.23
2018-05-27T04:20:41.973Z,11.87
2018-05-27T04:23:09.544Z,11.83
2018-05-27T04:25:37.130Z,12.63
2018-05-27T04:28:04.653Z,11.15
2018-05-27T04:30:32.229Z,11.07
2018-05-27T04:32:59.770Z,11.93
2018-05-27T04:35:27.432Z,10.90
2018-05-27T04:37:54.961Z,11.13
2018-05-27T04:40:22.563Z,11.27
2018-05-27T04:42:50.089Z,11.67
2018-05-27T04:45:17.670Z,11.90
2018-05-27T04:47:45.194Z,11.33
2018-05-27T04:50:12.788Z,11.70
2018-05-27T04:52:40.347Z,11.83
2018-05-27T04:55:08.020Z,10.83
2018-05-27T04:57:35.579Z,11.00
2018-05-27T05:00:03.232Z,10.33
2018-05-27T05:02:30.792Z,10.30
2018-05-27T05:04:58.362Z,10.00
2018-05-27T05:07:25.880Z,9.77
2018-05-27T05:09:53.467Z,10.10
2018-05-27T05:12:20.989Z,10.15
2018-05-27T05:14:48.610Z,10.70
2018-05-27T05:17:16.967Z,9.40
2018-05-27T05:19:44.511Z,9.97
2018-05-27T05:22:12.096Z,8.87
2018-05-27T05:24:39.650Z,9.67
2018-05-27T05:27:07.202Z,9.30
2018-05-27T05:29:34.754Z,9.77
2018-05-27T05:32:02.408Z,10.10
2018-05-27T05:34:29.933Z,9.86
2018-05-27T05:36:57.512Z,10.10
2018-05-27T05:39:25.059Z,10.17
2018-05-27T05:41:52.642Z,10.20
2018-05-27T05:44:20.164Z,10.53
2018-05-27T05:46:47.742Z,9.67
2018-05-27T05:49:15.370Z,9.63
2018-05-27T05:51:42.924Z,9.80
2018-05-27T05:54:10.574Z,9.10
2018-05-27T05:56:38.126Z,9.50
2018-05-27T05:59:06.128Z,9.27
2018-05-27T06:01:36.432Z,8.43
2018-05-27T06:04:04.287Z,8.47
2018-05-27T06:06:31.945Z,8.43
2018-05-27T06:08:59.457Z,7.90
2018-05-27T06:11:27.064Z,8.73
2018-05-27T06:13:54.594Z,8.20
2018-05-27T06:16:22.174Z,8.02
2018-05-27T06:18:49.753Z,8.37
2018-05-27T06:21:17.325Z,8.17
2018-05-27T06:23:44.911Z,7.47
2018-05-27T06:26:12.455Z,8.53
2018-05-27T06:28:40.006Z,7.80
2018-05-27T06:31:07.653Z,7.77
2018-05-27T06:33:35.313Z,8.33
2018-05-27T06:36:02.841Z,8.03
2018-05-27T06:38:30.387Z,8.10
2018-05-27T06:40:58.445Z,7.90
2018-05-27T06:43:26.069Z,7.45
2018-05-27T06:45:53.724Z,8.43
2018-05-27T06:48:21.293Z,7.93
2018-05-27T06:50:48.834Z,8.20
2018-05-27T06:53:17.324Z,8.38
2018-05-27T06:55:44.882Z,7.73
2018-05-27T06:58:14.737Z,8.47
2018-05-27T07:00:42.503Z,8.10
2018-05-27T07:03:12.859Z,8.27
2018-05-27T07:05:41.154Z,9.03
2018-05-27T07:08:08.719Z,9.50
2018-05-27T07:10:36.344Z,8.30
2018-05-27T07:13:05.495Z,8.23
2018-05-27T07:15:34.099Z,8.77
2018-05-27T07:18:01.801Z,9.50
2018-05-27T07:20:29.478Z,8.73
2018-05-27T07:22:58.374Z,9.30
2018-05-27T07:25:26.351Z,9.43
2018-05-27T07:27:54.515Z,9.33
2018-05-27T07:30:22.033Z,9.13
2018-05-27T07:32:54.332Z,9.07
2018-05-27T07:35:22.221Z,9.17
2018-05-27T07:37:50.041Z,9.70
2018-05-27T07:40:19.521Z,9.90
2018-05-27T07:42:48.164Z,8.97
2018-05-27T07:45:17.375Z,8.33
2018-05-27T07:47:48.582Z,10.33
2018-05-27T07:50:16.557Z,9.80
2018-05-27T07:52:47.697Z,9.87
2018-05-27T07:55:17.053Z,9.07
2018-05-27T07:57:49.081Z,9.07
2018-05-27T08:00:26.333Z,9.00
2018-05-27T08:02:58.971Z,9.74
2018-05-27T08:05:28.967Z,8.23
2018-05-27T08:07:56.528Z,8.53
2018-05-27T08:10:24.099Z,8.47
2018-05-27T08:12:51.752Z,8.97
2018-05-27T08:15:19.475Z,8.77
2018-05-27T08:17:47.973Z,9.80
2018-05-27T08:20:15.650Z,8.77
2018-05-27T08:22:43.234Z,9.60
2018-05-27T08:25:13.228Z,8.97
2018-05-27T08:27:41.018Z,9.57
2018-05-27T08:30:08.663Z,9.73
2018-05-27T08:32:36.189Z,9.50
2018-05-27T08:35:03.747Z,9.60
2018-05-27T08:37:31.334Z,9.40
2018-05-27T08:39:58.898Z,9.00
2018-05-27T08:42:26.453Z,9.23
2018-05-27T08:44:54.026Z,8.50
2018-05-27T08:47:21.556Z,8.17
2018-05-27T08:49:49.131Z,8.60
2018-05-27T08:52:16.691Z,8.17
2018-05-27T08:54:44.259Z,8.03
2018-05-27T08:57:11.791Z,8.13
2018-05-27T08:59:39.338Z,8.40
2018-05-27T09:02:09.434Z,8.93
2018-05-27T09:04:37.252Z,7.80
2018-05-27T09:07:04.821Z,8.25
2018-05-27T09:09:32.442Z,8.30
2018-05-27T09:11:59.972Z,8.60
2018-05-27T09:14:27.605Z,7.60
2018-05-27T09:16:55.155Z,7.90
2018-05-27T09:19:22.711Z,9.00
2018-05-27T09:21:50.931Z,7.93
2018-05-27T09:24:18.660Z,7.87
2018-05-27T09:26:46.214Z,9.00
2018-05-27T09:29:13.788Z,8.83
2018-05-27T09:31:41.430Z,9.20
2018-05-27T09:34:08.994Z,9.10
2018-05-27T09:36:36.521Z,10.00
2018-05-27T09:39:04.117Z,8.77
2018-05-27T09:41:31.675Z,9.47
2018-05-27T09:43:59.554Z,10.10
2018-05-27T09:46:27.498Z,10.13
2018-05-27T09:48:55.178Z,8.73
2018-05-27T09:51:23.041Z,9.70
2018-05-27T09:53:50.605Z,10.17
2018-05-27T09:56:18.254Z,9.63
2018-05-27T09:58:45.813Z,10.77
2018-05-27T10:01:13.970Z,10.77
2018-05-27T10:03:45.237Z,11.30
2018-05-27T10:06:21.372Z,11.00
2018-05-27T10:08:49.277Z,25.17
2018-05-27T10:11:16.923Z,22.93
2018-05-27T10:13:44.457Z,15.43
2018-05-27T10:16:12.050Z,14.10
2018-05-27T10:18:39.583Z,12.63
2018-05-27T10:21:07.159Z,10.90
2018-05-27T10:23:34.717Z,9.87
2018-05-27T10:26:02.463Z,11.33
2018-05-27T10:28:31.577Z,10.40
2018-05-27T10:30:59.241Z,9.17
2018-05-27T10:33:26.797Z,8.75
2018-05-27T10:35:54.350Z,8.43
2018-05-27T10:38:23.228Z,9.53
2018-05-27T10:40:50.778Z,7.93
2018-05-27T10:43:18.881Z,8.65
2018-05-27T10:45:47.055Z,9.00
2018-05-27T10:48:14.583Z,9.20
2018-05-27T10:50:42.176Z,8.50
2018-05-27T10:53:09.740Z,8.60
2018-05-27T10:55:37.294Z,8.93
2018-05-27T10:58:04.850Z,7.30
2018-05-27T11:00:32.395Z,8.13
2018-05-27T11:02:59.927Z,7.50
2018-05-27T11:05:27.532Z,8.03
2018-05-27T11:07:55.550Z,7.87
2018-05-27T11:10:23.110Z,9.23
2018-05-27T11:12:51.654Z,8.57
2018-05-27T11:15:19.287Z,8.20
2018-05-27T11:17:46.864Z,8.50
2018-05-27T11:20:14.629Z,9.00
2018-05-27T11:22:42.163Z,7.67
2018-05-27T11:25:09.751Z,8.57
2018-05-27T11:27:37.304Z,7.70
2018-05-27T11:30:04.977Z,7.83
2018-05-27T11:32:32.582Z,7.32
2018-05-27T11:35:00.191Z,7.15
2018-05-27T11:37:27.701Z,7.20
2018-05-27T11:39:55.307Z,7.43
2018-05-27T11:42:22.864Z,7.67
2018-05-27T11:44:50.436Z,6.97
2018-05-27T11:47:18.638Z,9.87
2018-05-27T11:49:46.678Z,7.23
2018-05-27T11:52:14.807Z,7.17
2018-05-27T11:54:42.408Z,8.33
2018-05-27T11:57:10.065Z,7.60
2018-05-27T11:59:38.183Z,8.50
2018-05-27T12:02:05.801Z,7.55
2018-05-27T12:04:33.618Z,7.90
2018-05-27T12:07:01.655Z,9.35
2018-05-27T12:09:29.289Z,8.30
2018-05-27T12:11:56.805Z,8.43
2018-05-27T12:14:24.536Z,8.30
2018-05-27T12:16:52.179Z,7.73
2018-05-27T12:19:19.726Z,7.70
2018-05-27T12:21:47.290Z,7.93
2018-05-27T12:24:15.778Z,8.60
2018-05-27T12:26:43.438Z,7.70
2018-05-27T12:29:10.978Z,8.20
2018-05-27T12:31:38.552Z,7.30
2018-05-27T12:34:06.127Z,8.02
2018-05-27T12:36:33.702Z,6.32
2018-05-27T12:39:01.235Z,6.80
2018-05-27T12:41:28.809Z,7.80
2018-05-27T12:43:56.356Z,6.65
2018-05-27T12:46:24.132Z,6.37
2018-05-27T12:48:52.191Z,6.57
2018-05-27T12:51:19.742Z,6.33
2018-05-27T12:53:47.309Z,6.97
2018-05-27T12:56:14.869Z,7.77
2018-05-27T12:58:42.430Z,7.83
2018-05-27T13:01:10.103Z,5.60
2018-05-27T13:03:37.704Z,6.33
2018-05-27T13:06:05.539Z,6.37
2018-05-27T13:08:34.261Z,5.43
2018-05-27T13:11:01.966Z,6.40
2018-05-27T13:13:29.628Z,5.97
2018-05-27T13:15:57.318Z,7.40
2018-05-27T13:18:24.963Z,6.15
2018-05-27T13:20:52.584Z,6.43
2018-05-27T13:23:20.516Z,8.27
2018-05-27T13:25:49.921Z,7.07
2018-05-27T13:28:17.474Z,6.97
2018-05-27T13:30:45.037Z,5.93
2018-05-27T13:33:12.600Z,9.53
2018-05-27T13:35:40.204Z,6.13
2018-05-27T13:38:08.585Z,7.63
2018-05-27T13:40:36.664Z,5.20
2018-05-27T13:43:04.213Z,5.67
2018-05-27T13:45:31.738Z,5.70
2018-05-27T13:47:59.345Z,5.35
2018-05-27T13:50:27.022Z,6.33
2018-05-27T13:52:54.591Z,5.40
2018-05-27T13:55:22.151Z,6.37
2018-05-27T13:57:50.148Z,8.43
2018-05-27T14:00:17.722Z,8.77
2018-05-27T14:02:45.303Z,5.07
2018-05-27T14:05:12.881Z,4.87
2018-05-27T14:07:40.453Z,6.40
2018-05-27T14:10:08.149Z,5.37
2018-05-27T14:12:35.718Z,6.23
2018-05-27T14:15:03.329Z,7.82
2018-05-27T14:17:30.986Z,5.40
2018-05-27T14:19:58.545Z,5.30
2018-05-27T14:22:26.104Z,7.72
2018-05-27T14:24:53.627Z,6.43
2018-05-27T14:27:21.255Z,6.53
2018-05-27T14:29:48.780Z,5.57
2018-05-27T14:32:16.446Z,5.37
2018-05-27T14:34:44.004Z,6.43
2018-05-27T14:37:11.559Z,7.27
2018-05-27T14:39:39.085Z,8.70
2018-05-27T14:42:06.692Z,7.63
2018-05-27T14:44:34.221Z,5.87
2018-05-27T14:47:01.799Z,4.37
2018-05-27T14:49:29.361Z,4.33
2018-05-27T14:51:56.897Z,6.20
2018-05-27T14:54:24.478Z,6.83
2018-05-27T14:56:52.046Z,5.23
2018-05-27T14:59:20.476Z,5.90
2018-05-27T15:01:48.080Z,5.53
2018-05-27T15:04:17.355Z,5.50
2018-05-27T15:06:45.463Z,5.13
2018-05-27T15:09:13.985Z,4.57
2018-05-27T15:11:41.593Z,7.70
2018-05-27T15:14:09.230Z,8.73
2018-05-27T15:16:36.821Z,4.30
2018-05-27T15:19:04.476Z,4.40
2018-05-27T15:21:32.035Z,8.63
2018-05-27T15:24:01.632Z,5.80
2018-05-27T15:26:29.203Z,6.50
2018-05-27T15:28:57.382Z,8.27
2018-05-27T15:31:25.376Z,8.40
2018-05-27T15:33:53.051Z,7.90
2018-05-27T15:36:21.590Z,6.75
2018-05-27T15:38:49.149Z,6.97
2018-05-27T15:41:16.665Z,7.13
2018-05-27T15:43:44.218Z,4.87
2018-05-27T15:46:11.820Z,8.73
2018-05-27T15:48:39.369Z,8.15
2018-05-27T15:51:06.952Z,6.28
2018-05-27T15:53:34.526Z,7.93
2018-05-27T15:56:02.065Z,7.53
2018-05-27T15:58:30.363Z,4.60
2018-05-27T16:00:58.020Z,8.98
2018-05-27T16:03:25.588Z,8.93
2018-05-27T16:05:53.531Z,6.03
2018-05-27T16:08:21.138Z,5.13
2018-05-27T16:10:50.270Z,5.67
2018-05-27T16:13:19.388Z,4.85
2018-05-27T16:15:46.992Z,11.50
2018-05-27T16:18:14.534Z,6.80
2018-05-27T16:20:42.160Z,5.37
2018-05-27T16:23:10.751Z,6.35
2018-05-27T16:25:38.575Z,5.13
2018-05-27T16:28:06.179Z,6.05
2018-05-27T16:30:33.836Z,5.00
2018-05-27T16:33:01.498Z,6.27
2018-05-27T16:35:29.056Z,5.23
2018-05-27T16:37:56.614Z,9.33
2018-05-27T16:40:24.142Z,5.23
2018-05-27T16:42:51.746Z,6.23
2018-05-27T16:45:19.398Z,7.07
2018-05-27T16:47:47.366Z,4.23
2018-05-27T16:50:15.027Z,6.53
2018-05-27T16:52:42.562Z,8.27
2018-05-27T16:55:10.122Z,5.67
2018-05-27T16:57:37.707Z,6.28
2018-05-27T17:00:05.353Z,8.37
2018-05-27T17:02:32.926Z,7.37
2018-05-27T17:05:00.485Z,8.57
2018-05-27T17:07:28.044Z,6.20
2018-05-27T17:09:55.612Z,6.73
2018-05-27T17:12:24.200Z,8.20
2018-05-27T17:14:51.770Z,11.23
2018-05-27T17:17:19.297Z,9.60
2018-05-27T17:19:46.849Z,13.00
2018-05-27T17:22:14.357Z,7.20
2018-05-27T17:24:41.897Z,6.10
2018-05-27T17:27:09.432Z,9.83
2018-05-27T17:29:36.983Z,6.93
2018-05-27T17:32:04.515Z,8.23
2018-05-27T17:34:32.091Z,11.80
2018-05-27T17:36:59.617Z,10.63
2018-05-27T17:39:27.166Z,5.13
2018-05-27T17:41:54.845Z,6.50
2018-05-27T17:44:22.413Z,12.10
2018-05-27T17:46:50.021Z,10.40
2018-05-27T17:49:17.578Z,10.10
2018-05-27T17:51:45.148Z,10.27
2018-05-27T17:54:12.729Z,8.60
2018-05-27T17:56:40.362Z,6.30
2018-05-27T17:59:08.022Z,6.65
2018-05-27T18:01:35.540Z,10.07
2018-05-27T18:04:03.139Z,6.10
2018-05-27T18:06:30.665Z,7.27
2018-05-27T18:08:58.222Z,6.77
2018-05-27T18:11:25.830Z,8.13
2018-05-27T18:13:53.376Z,7.57
2018-05-27T18:16:20.936Z,8.73
2018-05-27T18:18:48.478Z,7.07
2018-05-27T18:21:16.158Z,9.13
2018-05-27T18:23:44.422Z,10.57
2018-05-27T18:26:12.101Z,6.63
2018-05-27T18:28:39.666Z,8.60
2018-05-27T18:31:07.340Z,11.40
2018-05-27T18:33:34.979Z,8.40
2018-05-27T18:36:02.645Z,5.62
2018-05-27T18:38:40.447Z,8.13
2018-05-27T18:41:23.769Z,6.23
2018-05-27T18:43:56.100Z,6.60
2018-05-27T18:46:23.820Z,6.87
2018-05-27T18:48:51.352Z,8.03
2018-05-27T18:51:18.972Z,4.33
2018-05-27T18:53:46.480Z,6.10
2018-05-27T18:56:14.035Z,9.20
2018-05-27T18:58:41.562Z,8.83
2018-05-27T19:01:09.122Z,9.23
2018-05-27T19:03:36.667Z,12.00
2018-05-27T19:06:04.213Z,10.47
2018-05-27T19:08:31.745Z,11.70
2018-05-27T19:10:59.298Z,13.52
2018-05-27T19:13:26.852Z,8.13
2018-05-27T19:15:54.421Z,14.00
2018-05-27T19:18:21.979Z,8.90
2018-05-27T19:20:49.536Z,11.60
2018-05-27T19:23:17.082Z,7.80
2018-05-27T19:25:44.636Z,6.13
2018-05-27T19:28:12.209Z,8.43
2018-05-27T19:30:39.764Z,9.15
2018-05-27T19:33:07.340Z,7.07
2018-05-27T19:35:34.897Z,8.43
2018-05-27T19:38:03.676Z,10.10
2018-05-27T19:40:31.565Z,7.33
2018-05-27T19:42:59.100Z,6.40
2018-05-27T19:45:26.661Z,9.33
2018-05-27T19:47:54.221Z,8.73
2018-05-27T19:50:21.781Z,12.53
2018-05-27T19:52:49.338Z,9.83
2018-05-27T19:55:16.881Z,13.53
2018-05-27T19:57:44.467Z,8.87
2018-05-27T20:00:12.461Z,8.23
2018-05-27T20:02:40.075Z,9.10
2018-05-27T20:05:07.751Z,15.07
2018-05-27T20:07:35.271Z,7.60
2018-05-27T20:10:02.856Z,8.47
2018-05-27T20:12:30.432Z,7.30
2018-05-27T20:14:59.061Z,5.75
2018-05-27T20:17:26.633Z,6.43
2018-05-27T20:19:54.181Z,5.60
2018-05-27T20:22:21.793Z,8.33
2018-05-27T20:24:49.352Z,5.77
2018-05-27T20:27:17.015Z,6.13
2018-05-27T20:29:44.541Z,8.57
2018-05-27T20:32:12.144Z,10.93
2018-05-27T20:34:39.661Z,7.47
2018-05-27T20:37:07.213Z,6.95
2018-05-27T20:39:35.121Z,7.32
2018-05-27T20:42:02.725Z,9.33
2018-05-27T20:44:30.261Z,11.43
2018-05-27T20:47:01.136Z,7.13
2018-05-27T20:49:32.246Z,6.85
2018-05-27T20:52:00.791Z,10.98
2018-05-27T20:54:28.365Z,7.77
2018-05-27T20:56:55.976Z,7.10
2018-05-27T20:59:23.533Z,5.57
2018-05-27T21:01:51.141Z,7.23
2018-05-27T21:04:19.121Z,10.10
2018-05-27T21:06:46.975Z,6.77
2018-05-27T21:09:15.002Z,6.30
2018-05-27T21:11:43.596Z,12.40
2018-05-27T21:14:11.190Z,7.50
2018-05-27T21:16:38.758Z,8.20
2018-05-27T21:19:06.985Z,10.37
2018-05-27T21:21:34.538Z,7.00
2018-05-27T21:24:02.065Z,5.80
2018-05-27T21:26:30.538Z,10.52
2018-05-27T21:28:58.287Z,9.43
2018-05-27T21:31:26.345Z,8.50
2018-05-27T21:33:54.369Z,7.17
2018-05-27T21:36:22.566Z,6.57
2018-05-27T21:38:50.165Z,5.67
2018-05-27T21:41:18.131Z,14.00
2018-05-27T21:43:45.655Z,7.93
2018-05-27T21:46:13.744Z,6.22
2018-05-27T21:48:41.324Z,8.27
2018-05-27T21:51:08.929Z,5.90
2018-05-27T21:53:36.712Z,9.27
2018-05-27T21:56:04.512Z,8.13
2018-05-27T21:58:32.378Z,6.17
2018-05-27T22:01:00.319Z,7.50
2018-05-27T22:03:27.917Z,12.63
2018-05-27T22:05:55.754Z,8.63
2018-05-27T22:08:23.639Z,8.83
2018-05-27T22:10:51.199Z,9.03
2018-05-27T22:13:19.181Z,6.80
2018-05-27T22:15:47.345Z,6.70
2018-05-27T22:18:15.630Z,10.82
2018-05-27T22:20:43.329Z,8.20
2018-05-27T22:23:11.514Z,7.90
2018-05-27T22:25:39.628Z,9.83
2018-05-27T22:28:07.467Z,9.73
2018-05-27T22:30:34.974Z,8.00
2018-05-27T22:33:03.023Z,5.50
2018-05-27T22:35:30.549Z,10.93
2018-05-27T22:37:58.780Z,9.27
2018-05-27T22:40:26.603Z,7.20
2018-05-27T22:42:54.256Z,8.37
2018-05-27T22:45:22.161Z,10.43
2018-05-27T22:47:49.937Z,8.30
2018-05-27T22:50:17.481Z,11.68
2018-05-27T22:52:47.490Z,5.68
2018-05-27T22:55:15.017Z,7.62
2018-05-27T22:57:42.597Z,5.80
2018-05-27T23:00:10.198Z,5.57
2018-05-27T23:02:37.826Z,9.40
2018-05-27T23:05:05.344Z,9.33
2018-05-27T23:07:33.016Z,6.10
2018-05-27T23:10:00.610Z,7.30
2018-05-27T23:12:28.154Z,6.10
2018-05-27T23:14:55.684Z,8.13
2018-05-27T23:17:23.262Z,11.20
2018-05-27T23:19:50.791Z,9.33
2018-05-27T23:22:18.494Z,8.53
2018-05-27T23:24:46.074Z,8.67
2018-05-27T23:27:13.744Z,9.90
2018-05-27T23:29:41.315Z,8.03
2018-05-27T23:32:08.850Z,8.70
2018-05-27T23:34:36.425Z,14.60
2018-05-27T23:37:03.951Z,7.72
2018-05-27T23:39:31.529Z,8.33
2018-05-27T23:41:59.056Z,13.00
2018-05-27T23:44:26.612Z,9.23
2018-05-27T23:46:54.205Z,7.90
2018-05-27T23:49:21.767Z,6.03
2018-05-27T23:51:49.285Z,5.90
2018-05-27T23:54:16.886Z,6.60
2018-05-27T23:56:44.416Z,9.80
2018-05-27T23:59:11.973Z,6.60
